sensor_id;sensor_type;location;lat;lon;timestamp;temperature;humidity
652;DHT22;310;48.490;9.200;2023-05-10T00:01:12;18.80;53.80
652;DHT22;310;48.490;9.200;2023-05-10T00:03:37;18.80;53.60
652;DHT22;310;48.490;9.200;2023-05-10T00:06:03;18.60;54.70
652;DHT22;310;48.490;9.200;2023-05-10T00:08:29;18.60;52.90
652;DHT22;310;48.490;9.200;2023-05-10T00:10:54;18.60;56.20
652;DHT22;310;48.490;9.200;2023-05-10T00:13:20;18.30;54.50
652;DHT22;310;48.490;9.200;2023-05-10T00:15:46;18.30;55.90
652;DHT22;310;48.490;9.200;2023-05-10T00:18:11;18.20;54.50
652;DHT22;310;48.490;9.200;2023-05-10T00:20:37;18.00;56.00
652;DHT22;310;48.490;9.200;2023-05-10T00:23:02;18.10;56.40
652;DHT22;310;48.490;9.200;2023-05-10T00:25:28;17.90;57.20
652;DHT22;310;48.490;9.200;2023-05-10T00:27:54;18.10;56.60
652;DHT22;310;48.490;9.200;2023-05-10T00:30:20;17.90;57.60
652;DHT22;310;48.490;9.200;2023-05-10T00:32:46;18.10;56.10
652;DHT22;310;48.490;9.200;2023-05-10T00:35:13;17.90;57.20
652;DHT22;310;48.490;9.200;2023-05-10T00:37:39;18.00;58.60
652;DHT22;310;48.490;9.200;2023-05-10T00:40:05;17.80;58.30
652;DHT22;310;48.490;9.200;2023-05-10T00:42:31;18.20;56.20
652;DHT22;310;48.490;9.200;2023-05-10T00:44:57;17.80;58.00
652;DHT22;310;48.490;9.200;2023-05-10T00:47:23;17.40;60.30
652;DHT22;310;48.490;9.200;2023-05-10T00:49:48;16.60;66.00
652;DHT22;310;48.490;9.200;2023-05-10T00:52:14;16.70;70.10
652;DHT22;310;48.490;9.200;2023-05-10T00:54:40;17.20;65.40
652;DHT22;310;48.490;9.200;2023-05-10T00:57:06;17.30;62.30
652;DHT22;310;48.490;9.200;2023-05-10T00:59:32;17.20;63.60
652;DHT22;310;48.490;9.200;2023-05-10T01:01:58;16.80;67.50
652;DHT22;310;48.490;9.200;2023-05-10T01:04:23;16.80;67.60
652;DHT22;310;48.490;9.200;2023-05-10T01:06:51;17.00;66.80
652;DHT22;310;48.490;9.200;2023-05-10T01:09:18;17.30;65.90
652;DHT22;310;48.490;9.200;2023-05-10T01:11:44;17.20;64.60
652;DHT22;310;48.490;9.200;2023-05-10T01:14:10;17.10;63.70
652;DHT22;310;48.490;9.200;2023-05-10T01:16:39;17.10;63.00
652;DHT22;310;48.490;9.200;2023-05-10T01:19:17;17.20;61.30
652;DHT22;310;48.490;9.200;2023-05-10T01:33:11;17.80;57.60
652;DHT22;310;48.490;9.200;2023-05-10T01:35:54;18.00;56.10
652;DHT22;310;48.490;9.200;2023-05-10T01:38:38;18.00;54.80
652;DHT22;310;48.490;9.200;2023-05-10T01:43:48;18.50;52.60
652;DHT22;310;48.490;9.200;2023-05-10T01:46:20;18.30;52.60
652;DHT22;310;48.490;9.200;2023-05-10T01:48:52;18.10;53.00
652;DHT22;310;48.490;9.200;2023-05-10T01:51:23;17.70;54.60
652;DHT22;310;48.490;9.200;2023-05-10T01:53:54;17.20;57.10
652;DHT22;310;48.490;9.200;2023-05-10T01:56:24;17.30;58.60
652;DHT22;310;48.490;9.200;2023-05-10T01:58:52;17.60;57.80
652;DHT22;310;48.490;9.200;2023-05-10T02:01:20;17.40;55.40
652;DHT22;310;48.490;9.200;2023-05-10T02:03:47;16.90;59.60
652;DHT22;310;48.490;9.200;2023-05-10T02:06:14;17.50;57.00
652;DHT22;310;48.490;9.200;2023-05-10T02:08:43;17.50;57.50
652;DHT22;310;48.490;9.200;2023-05-10T02:11:13;17.90;54.70
652;DHT22;310;48.490;9.200;2023-05-10T02:13:39;17.90;55.10
652;DHT22;310;48.490;9.200;2023-05-10T02:16:06;17.80;54.50
652;DHT22;310;48.490;9.200;2023-05-10T02:18:33;17.70;55.70
652;DHT22;310;48.490;9.200;2023-05-10T02:21:01;18.00;55.10
652;DHT22;310;48.490;9.200;2023-05-10T02:23:28;18.20;53.40
652;DHT22;310;48.490;9.200;2023-05-10T02:25:55;18.20;52.30
652;DHT22;310;48.490;9.200;2023-05-10T02:28:23;18.10;53.20
652;DHT22;310;48.490;9.200;2023-05-10T02:30:49;17.90;53.80
652;DHT22;310;48.490;9.200;2023-05-10T02:33:16;17.40;54.70
652;DHT22;310;48.490;9.200;2023-05-10T02:35:42;17.40;54.50
652;DHT22;310;48.490;9.200;2023-05-10T02:38:09;17.60;55.70
652;DHT22;310;48.490;9.200;2023-05-10T02:40:37;17.70;52.50
652;DHT22;310;48.490;9.200;2023-05-10T02:43:04;17.30;53.40
652;DHT22;310;48.490;9.200;2023-05-10T02:45:32;16.70;57.30
652;DHT22;310;48.490;9.200;2023-05-10T02:47:59;16.50;59.50
652;DHT22;310;48.490;9.200;2023-05-10T02:50:30;16.60;58.20
652;DHT22;310;48.490;9.200;2023-05-10T02:53:01;16.90;59.00
652;DHT22;310;48.490;9.200;2023-05-10T02:55:36;17.30;57.60
652;DHT22;310;48.490;9.200;2023-05-10T02:58:03;17.50;56.30
652;DHT22;310;48.490;9.200;2023-05-10T03:00:29;17.60;54.10
652;DHT22;310;48.490;9.200;2023-05-10T03:02:55;17.40;52.50
652;DHT22;310;48.490;9.200;2023-05-10T03:05:21;17.30;54.40
652;DHT22;310;48.490;9.200;2023-05-10T03:07:47;17.60;52.90
652;DHT22;310;48.490;9.200;2023-05-10T03:10:12;17.10;55.10
652;DHT22;310;48.490;9.200;2023-05-10T03:12:45;17.40;53.20
652;DHT22;310;48.490;9.200;2023-05-10T03:15:34;17.60;52.30
652;DHT22;310;48.490;9.200;2023-05-10T03:18:22;17.80;52.50
652;DHT22;310;48.490;9.200;2023-05-10T03:20:50;17.30;55.30
652;DHT22;310;48.490;9.200;2023-05-10T03:26:01;16.90;56.20
652;DHT22;310;48.490;9.200;2023-05-10T03:28:28;17.40;56.50
652;DHT22;310;48.490;9.200;2023-05-10T03:30:55;17.50;54.50
652;DHT22;310;48.490;9.200;2023-05-10T03:33:21;17.70;54.80
652;DHT22;310;48.490;9.200;2023-05-10T03:35:47;17.70;54.70
652;DHT22;310;48.490;9.200;2023-05-10T03:38:13;17.70;55.30
652;DHT22;310;48.490;9.200;2023-05-10T03:40:39;17.70;54.40
652;DHT22;310;48.490;9.200;2023-05-10T03:43:04;17.80;54.50
652;DHT22;310;48.490;9.200;2023-05-10T03:45:30;17.80;54.90
652;DHT22;310;48.490;9.200;2023-05-10T03:47:57;18.00;54.20
652;DHT22;310;48.490;9.200;2023-05-10T03:50:23;18.00;53.30
652;DHT22;310;48.490;9.200;2023-05-10T03:52:48;17.90;54.70
652;DHT22;310;48.490;9.200;2023-05-10T03:55:14;17.90;54.20
652;DHT22;310;48.490;9.200;2023-05-10T03:57:40;18.00;54.00
652;DHT22;310;48.490;9.200;2023-05-10T04:00:06;18.00;54.40
652;DHT22;310;48.490;9.200;2023-05-10T04:02:32;18.00;54.20
652;DHT22;310;48.490;9.200;2023-05-10T04:04:57;18.00;53.80
652;DHT22;310;48.490;9.200;2023-05-10T04:07:23;18.00;54.30
652;DHT22;310;48.490;9.200;2023-05-10T04:09:49;17.90;54.80
652;DHT22;310;48.490;9.200;2023-05-10T04:12:14;17.90;54.70
652;DHT22;310;48.490;9.200;2023-05-10T04:14:40;18.00;54.60
652;DHT22;310;48.490;9.200;2023-05-10T04:17:06;17.90;55.40
652;DHT22;310;48.490;9.200;2023-05-10T04:19:31;18.00;56.70
652;DHT22;310;48.490;9.200;2023-05-10T04:21:57;20.00;57.20
652;DHT22;310;48.490;9.200;2023-05-10T04:24:23;18.00;55.20
652;DHT22;310;48.490;9.200;2023-05-10T04:26:49;18.00;53.90
652;DHT22;310;48.490;9.200;2023-05-10T04:29:14;18.00;52.20
652;DHT22;310;48.490;9.200;2023-05-10T04:31:40;17.90;50.90
652;DHT22;310;48.490;9.200;2023-05-10T04:34:06;17.80;53.40
652;DHT22;310;48.490;9.200;2023-05-10T04:36:31;17.90;54.00
652;DHT22;310;48.490;9.200;2023-05-10T04:39:02;18.00;53.60
652;DHT22;310;48.490;9.200;2023-05-10T04:41:30;17.90;54.10
652;DHT22;310;48.490;9.200;2023-05-10T04:43:56;17.90;54.00
652;DHT22;310;48.490;9.200;2023-05-10T04:46:22;18.00;54.30
652;DHT22;310;48.490;9.200;2023-05-10T04:48:47;18.00;54.10
652;DHT22;310;48.490;9.200;2023-05-10T04:51:13;18.10;53.60
652;DHT22;310;48.490;9.200;2023-05-10T04:53:39;17.90;51.10
652;DHT22;310;48.490;9.200;2023-05-10T04:56:05;18.00;49.80
652;DHT22;310;48.490;9.200;2023-05-10T04:58:30;17.90;50.90
652;DHT22;310;48.490;9.200;2023-05-10T05:00:56;17.90;53.40
652;DHT22;310;48.490;9.200;2023-05-10T05:03:22;18.00;50.00
652;DHT22;310;48.490;9.200;2023-05-10T05:05:47;17.40;54.00
652;DHT22;310;48.490;9.200;2023-05-10T05:08:13;17.60;55.10
652;DHT22;310;48.490;9.200;2023-05-10T05:10:39;17.80;54.70
652;DHT22;310;48.490;9.200;2023-05-10T05:13:05;17.90;51.90
652;DHT22;310;48.490;9.200;2023-05-10T05:15:30;18.00;53.80
652;DHT22;310;48.490;9.200;2023-05-10T05:17:56;18.10;52.70
652;DHT22;310;48.490;9.200;2023-05-10T05:20:22;18.10;51.70
652;DHT22;310;48.490;9.200;2023-05-10T05:22:48;18.30;50.40
652;DHT22;310;48.490;9.200;2023-05-10T05:25:13;18.30;52.10
652;DHT22;310;48.490;9.200;2023-05-10T05:27:40;18.30;53.90
652;DHT22;310;48.490;9.200;2023-05-10T05:30:06;18.40;53.30
652;DHT22;310;48.490;9.200;2023-05-10T05:32:32;18.40;52.60
652;DHT22;310;48.490;9.200;2023-05-10T05:34:57;18.60;53.10
652;DHT22;310;48.490;9.200;2023-05-10T05:37:23;18.70;50.80
652;DHT22;310;48.490;9.200;2023-05-10T05:39:50;18.70;48.10
652;DHT22;310;48.490;9.200;2023-05-10T05:42:15;18.60;47.10
652;DHT22;310;48.490;9.200;2023-05-10T05:44:43;18.40;48.00
652;DHT22;310;48.490;9.200;2023-05-10T05:47:09;18.50;47.30
652;DHT22;310;48.490;9.200;2023-05-10T05:49:34;18.10;51.10
652;DHT22;310;48.490;9.200;2023-05-10T05:52:01;18.00;47.70
652;DHT22;310;48.490;9.200;2023-05-10T05:54:27;17.70;50.00
652;DHT22;310;48.490;9.200;2023-05-10T05:56:59;17.50;50.40
652;DHT22;310;48.490;9.200;2023-05-10T05:59:26;17.30;53.20
652;DHT22;310;48.490;9.200;2023-05-10T06:01:52;16.90;56.20
652;DHT22;310;48.490;9.200;2023-05-10T06:04:18;16.70;58.00
652;DHT22;310;48.490;9.200;2023-05-10T06:06:44;17.30;54.30
652;DHT22;310;48.490;9.200;2023-05-10T06:09:10;17.50;53.90
652;DHT22;310;48.490;9.200;2023-05-10T06:11:36;17.40;52.00
652;DHT22;310;48.490;9.200;2023-05-10T06:14:02;17.40;52.60
652;DHT22;310;48.490;9.200;2023-05-10T06:16:29;17.50;52.60
652;DHT22;310;48.490;9.200;2023-05-10T06:18:55;17.80;52.50
652;DHT22;310;48.490;9.200;2023-05-10T06:21:21;17.40;53.30
652;DHT22;310;48.490;9.200;2023-05-10T06:23:46;17.50;55.50
652;DHT22;310;48.490;9.200;2023-05-10T06:26:12;17.40;53.40
652;DHT22;310;48.490;9.200;2023-05-10T06:28:39;17.70;54.20
652;DHT22;310;48.490;9.200;2023-05-10T06:31:05;17.90;49.80
652;DHT22;310;48.490;9.200;2023-05-10T06:33:31;17.70;50.10
652;DHT22;310;48.490;9.200;2023-05-10T06:35:56;17.60;53.30
652;DHT22;310;48.490;9.200;2023-05-10T06:38:22;17.90;50.70
652;DHT22;310;48.490;9.200;2023-05-10T06:40:48;17.90;49.40
652;DHT22;310;48.490;9.200;2023-05-10T06:43:14;17.80;51.40
652;DHT22;310;48.490;9.200;2023-05-10T06:45:39;17.90;48.90
652;DHT22;310;48.490;9.200;2023-05-10T06:48:06;18.00;50.30
652;DHT22;310;48.490;9.200;2023-05-10T06:50:32;18.20;48.00
652;DHT22;310;48.490;9.200;2023-05-10T06:52:57;17.80;49.60
652;DHT22;310;48.490;9.200;2023-05-10T06:55:23;17.70;49.80
652;DHT22;310;48.490;9.200;2023-05-10T06:57:49;18.00;47.90
652;DHT22;310;48.490;9.200;2023-05-10T07:00:16;17.60;50.40
652;DHT22;310;48.490;9.200;2023-05-10T07:02:42;17.80;49.60
652;DHT22;310;48.490;9.200;2023-05-10T07:05:08;17.80;49.30
652;DHT22;310;48.490;9.200;2023-05-10T07:07:33;18.10;48.70
652;DHT22;310;48.490;9.200;2023-05-10T07:09:59;18.50;47.80
652;DHT22;310;48.490;9.200;2023-05-10T07:12:25;18.20;46.40
652;DHT22;310;48.490;9.200;2023-05-10T07:14:51;18.20;45.90
652;DHT22;310;48.490;9.200;2023-05-10T07:17:17;18.30;46.60
652;DHT22;310;48.490;9.200;2023-05-10T07:19:43;18.40;45.50
652;DHT22;310;48.490;9.200;2023-05-10T07:22:09;18.40;47.10
652;DHT22;310;48.490;9.200;2023-05-10T07:24:35;18.80;47.10
652;DHT22;310;48.490;9.200;2023-05-10T07:27:00;18.00;47.80
652;DHT22;310;48.490;9.200;2023-05-10T07:29:26;17.70;49.50
652;DHT22;310;48.490;9.200;2023-05-10T07:31:52;17.90;50.50
652;DHT22;310;48.490;9.200;2023-05-10T07:34:18;18.20;48.80
652;DHT22;310;48.490;9.200;2023-05-10T07:36:43;18.60;47.40
652;DHT22;310;48.490;9.200;2023-05-10T07:39:09;18.70;45.70
652;DHT22;310;48.490;9.200;2023-05-10T07:41:34;18.70;48.60
652;DHT22;310;48.490;9.200;2023-05-10T07:44:00;18.60;45.40
652;DHT22;310;48.490;9.200;2023-05-10T07:46:26;18.30;47.30
652;DHT22;310;48.490;9.200;2023-05-10T07:48:51;18.50;49.40
652;DHT22;310;48.490;9.200;2023-05-10T07:51:17;18.60;45.80
652;DHT22;310;48.490;9.200;2023-05-10T07:53:43;18.60;46.20
652;DHT22;310;48.490;9.200;2023-05-10T07:56:23;18.70;45.10
652;DHT22;310;48.490;9.200;2023-05-10T07:58:50;18.20;46.30
652;DHT22;310;48.490;9.200;2023-05-10T08:01:15;18.10;50.80
652;DHT22;310;48.490;9.200;2023-05-10T08:03:41;18.20;46.20
652;DHT22;310;48.490;9.200;2023-05-10T08:06:07;18.60;47.80
652;DHT22;310;48.490;9.200;2023-05-10T08:08:32;18.10;47.50
652;DHT22;310;48.490;9.200;2023-05-10T08:10:58;18.00;48.80
652;DHT22;310;48.490;9.200;2023-05-10T08:13:23;18.50;46.00
652;DHT22;310;48.490;9.200;2023-05-10T08:15:49;18.30;46.70
652;DHT22;310;48.490;9.200;2023-05-10T08:18:17;18.90;45.50
652;DHT22;310;48.490;9.200;2023-05-10T08:20:42;18.40;47.70
652;DHT22;310;48.490;9.200;2023-05-10T08:23:08;18.70;48.60
652;DHT22;310;48.490;9.200;2023-05-10T08:25:33;19.20;43.70
652;DHT22;310;48.490;9.200;2023-05-10T08:27:59;18.70;43.80
652;DHT22;310;48.490;9.200;2023-05-10T08:30:24;19.10;43.80
652;DHT22;310;48.490;9.200;2023-05-10T08:32:50;19.00;41.60
652;DHT22;310;48.490;9.200;2023-05-10T08:35:16;18.70;44.20
652;DHT22;310;48.490;9.200;2023-05-10T08:37:41;18.50;43.40
652;DHT22;310;48.490;9.200;2023-05-10T08:40:08;18.30;45.20
652;DHT22;310;48.490;9.200;2023-05-10T08:42:40;18.80;42.30
652;DHT22;310;48.490;9.200;2023-05-10T08:45:07;19.50;41.70
652;DHT22;310;48.490;9.200;2023-05-10T08:47:35;20.10;39.30
652;DHT22;310;48.490;9.200;2023-05-10T08:50:02;19.30;39.20
652;DHT22;310;48.490;9.200;2023-05-10T08:52:30;18.70;40.40
652;DHT22;310;48.490;9.200;2023-05-10T08:54:56;17.80;44.50
652;DHT22;310;48.490;9.200;2023-05-10T08:57:22;18.30;43.20
652;DHT22;310;48.490;9.200;2023-05-10T08:59:47;18.40;42.00
652;DHT22;310;48.490;9.200;2023-05-10T09:02:13;18.30;42.50
652;DHT22;310;48.490;9.200;2023-05-10T09:04:39;18.30;42.10
652;DHT22;310;48.490;9.200;2023-05-10T09:07:06;17.70;45.40
652;DHT22;310;48.490;9.200;2023-05-10T09:09:32;17.80;45.20
652;DHT22;310;48.490;9.200;2023-05-10T09:11:58;18.80;48.60
652;DHT22;310;48.490;9.200;2023-05-10T09:14:25;19.40;40.60
652;DHT22;310;48.490;9.200;2023-05-10T09:16:51;19.20;40.10
652;DHT22;310;48.490;9.200;2023-05-10T09:19:17;19.50;40.00
652;DHT22;310;48.490;9.200;2023-05-10T09:21:43;18.60;40.40
652;DHT22;310;48.490;9.200;2023-05-10T09:24:09;18.30;41.40
652;DHT22;310;48.490;9.200;2023-05-10T09:26:35;18.10;40.90
652;DHT22;310;48.490;9.200;2023-05-10T09:29:01;18.20;41.70
652;DHT22;310;48.490;9.200;2023-05-10T09:32:03;18.50;40.90
652;DHT22;310;48.490;9.200;2023-05-10T09:34:30;18.00;43.10
652;DHT22;310;48.490;9.200;2023-05-10T09:36:58;18.10;42.10
652;DHT22;310;48.490;9.200;2023-05-10T09:39:33;17.60;42.80
652;DHT22;310;48.490;9.200;2023-05-10T09:42:00;18.20;42.80
652;DHT22;310;48.490;9.200;2023-05-10T09:44:27;18.60;40.40
652;DHT22;310;48.490;9.200;2023-05-10T09:46:52;18.50;40.20
652;DHT22;310;48.490;9.200;2023-05-10T09:49:20;18.70;40.00
652;DHT22;310;48.490;9.200;2023-05-10T09:51:46;18.90;39.90
652;DHT22;310;48.490;9.200;2023-05-10T09:54:13;18.90;40.60
652;DHT22;310;48.490;9.200;2023-05-10T09:56:40;18.90;38.60
652;DHT22;310;48.490;9.200;2023-05-10T09:59:07;19.30;37.50
652;DHT22;310;48.490;9.200;2023-05-10T10:01:33;18.70;38.20
652;DHT22;310;48.490;9.200;2023-05-10T10:04:05;18.10;37.70
652;DHT22;310;48.490;9.200;2023-05-10T10:06:40;17.40;42.10
652;DHT22;310;48.490;9.200;2023-05-10T10:09:07;17.50;41.10
652;DHT22;310;48.490;9.200;2023-05-10T10:11:37;17.30;45.50
652;DHT22;310;48.490;9.200;2023-05-10T10:14:03;17.50;45.40
652;DHT22;310;48.490;9.200;2023-05-10T10:16:30;17.80;46.30
652;DHT22;310;48.490;9.200;2023-05-10T10:18:56;17.80;47.80
652;DHT22;310;48.490;9.200;2023-05-10T10:21:22;17.60;50.80
652;DHT22;310;48.490;9.200;2023-05-10T10:23:48;17.90;52.10
652;DHT22;310;48.490;9.200;2023-05-10T10:26:15;17.90;49.80
652;DHT22;310;48.490;9.200;2023-05-10T10:31:41;17.70;51.80
652;DHT22;310;48.490;9.200;2023-05-10T10:34:11;18.00;48.50
652;DHT22;310;48.490;9.200;2023-05-10T10:36:46;17.70;50.00
652;DHT22;310;48.490;9.200;2023-05-10T10:39:12;17.90;49.90
652;DHT22;310;48.490;9.200;2023-05-10T10:41:49;17.90;48.20
652;DHT22;310;48.490;9.200;2023-05-10T10:44:25;18.20;47.10
652;DHT22;310;48.490;9.200;2023-05-10T10:47:07;18.60;48.80
652;DHT22;310;48.490;9.200;2023-05-10T10:50:03;18.90;49.30
652;DHT22;310;48.490;9.200;2023-05-10T10:52:42;19.30;47.50
652;DHT22;310;48.490;9.200;2023-05-10T10:57:50;19.80;45.40
652;DHT22;310;48.490;9.200;2023-05-10T11:00:36;19.70;41.40
652;DHT22;310;48.490;9.200;2023-05-10T11:03:08;19.50;42.50
652;DHT22;310;48.490;9.200;2023-05-10T11:13:38;19.30;43.20
652;DHT22;310;48.490;9.200;2023-05-10T11:16:11;19.90;40.10
652;DHT22;310;48.490;9.200;2023-05-10T11:18:37;20.40;39.00
652;DHT22;310;48.490;9.200;2023-05-10T11:21:03;21.10;37.80
652;DHT22;310;48.490;9.200;2023-05-10T11:23:54;21.50;36.60
652;DHT22;310;48.490;9.200;2023-05-10T11:26:30;21.30;35.00
652;DHT22;310;48.490;9.200;2023-05-10T11:28:56;19.50;40.60
652;DHT22;310;48.490;9.200;2023-05-10T11:31:24;17.70;38.60
652;DHT22;310;48.490;9.200;2023-05-10T11:33:56;17.10;40.60
652;DHT22;310;48.490;9.200;2023-05-10T11:36:33;17.10;41.50
652;DHT22;310;48.490;9.200;2023-05-10T11:38:59;17.20;39.70
652;DHT22;310;48.490;9.200;2023-05-10T11:41:28;17.00;41.80
652;DHT22;310;48.490;9.200;2023-05-10T11:43:55;16.80;42.10
652;DHT22;310;48.490;9.200;2023-05-10T11:46:25;16.70;41.80
652;DHT22;310;48.490;9.200;2023-05-10T11:48:54;14.80;41.70
652;DHT22;310;48.490;9.200;2023-05-10T11:51:24;16.40;41.30
652;DHT22;310;48.490;9.200;2023-05-10T11:53:53;16.70;38.70
652;DHT22;310;48.490;9.200;2023-05-10T11:56:19;16.00;42.90
652;DHT22;310;48.490;9.200;2023-05-10T11:58:55;15.40;45.00
652;DHT22;310;48.490;9.200;2023-05-10T12:01:21;15.70;51.60
652;DHT22;310;48.490;9.200;2023-05-10T12:03:47;16.30;50.00
652;DHT22;310;48.490;9.200;2023-05-10T12:06:13;16.90;53.00
652;DHT22;310;48.490;9.200;2023-05-10T12:08:45;17.70;47.80
652;DHT22;310;48.490;9.200;2023-05-10T12:11:12;18.10;43.90
652;DHT22;310;48.490;9.200;2023-05-10T12:13:40;17.50;45.40
652;DHT22;310;48.490;9.200;2023-05-10T12:16:20;18.10;44.20
652;DHT22;310;48.490;9.200;2023-05-10T12:18:53;18.10;42.00
652;DHT22;310;48.490;9.200;2023-05-10T12:21:20;17.60;43.20
652;DHT22;310;48.490;9.200;2023-05-10T12:23:48;17.30;44.00
652;DHT22;310;48.490;9.200;2023-05-10T12:26:15;17.20;41.80
652;DHT22;310;48.490;9.200;2023-05-10T12:28:40;16.80;41.20
652;DHT22;310;48.490;9.200;2023-05-10T12:31:06;17.10;44.80
652;DHT22;310;48.490;9.200;2023-05-10T12:33:40;18.20;40.30
652;DHT22;310;48.490;9.200;2023-05-10T12:36:11;18.80;40.00
652;DHT22;310;48.490;9.200;2023-05-10T12:38:44;19.50;37.00
652;DHT22;310;48.490;9.200;2023-05-10T12:41:15;19.20;35.00
652;DHT22;310;48.490;9.200;2023-05-10T12:43:41;19.20;39.50
652;DHT22;310;48.490;9.200;2023-05-10T12:46:08;18.90;33.50
652;DHT22;310;48.490;9.200;2023-05-10T12:48:35;18.10;36.20
652;DHT22;310;48.490;9.200;2023-05-10T12:51:02;17.70;38.30
652;DHT22;310;48.490;9.200;2023-05-10T12:53:28;18.80;41.20
652;DHT22;310;48.490;9.200;2023-05-10T12:55:53;18.80;36.90
652;DHT22;310;48.490;9.200;2023-05-10T12:58:19;18.50;36.10
652;DHT22;310;48.490;9.200;2023-05-10T13:00:45;18.00;36.40
652;DHT22;310;48.490;9.200;2023-05-10T13:03:11;18.40;38.30
652;DHT22;310;48.490;9.200;2023-05-10T13:05:37;17.70;38.50
652;DHT22;310;48.490;9.200;2023-05-10T13:08:02;17.60;37.90
652;DHT22;310;48.490;9.200;2023-05-10T13:10:31;17.50;38.30
652;DHT22;310;48.490;9.200;2023-05-10T13:12:57;18.10;40.00
652;DHT22;310;48.490;9.200;2023-05-10T13:15:23;18.90;36.90
652;DHT22;310;48.490;9.200;2023-05-10T13:17:49;19.60;34.90
652;DHT22;310;48.490;9.200;2023-05-10T13:20:15;19.90;34.20
652;DHT22;310;48.490;9.200;2023-05-10T13:22:43;20.40;37.50
652;DHT22;310;48.490;9.200;2023-05-10T13:25:09;20.70;35.30
652;DHT22;310;48.490;9.200;2023-05-10T13:27:34;20.10;32.30
652;DHT22;310;48.490;9.200;2023-05-10T13:30:01;19.20;35.30
652;DHT22;310;48.490;9.200;2023-05-10T13:32:28;19.80;34.30
652;DHT22;310;48.490;9.200;2023-05-10T13:34:54;20.30;32.80
652;DHT22;310;48.490;9.200;2023-05-10T13:37:20;20.60;32.50
652;DHT22;310;48.490;9.200;2023-05-10T13:39:46;20.80;32.40
652;DHT22;310;48.490;9.200;2023-05-10T13:42:12;20.80;32.70
652;DHT22;310;48.490;9.200;2023-05-10T13:44:37;21.10;30.40
652;DHT22;310;48.490;9.200;2023-05-10T13:47:04;20.80;32.10
652;DHT22;310;48.490;9.200;2023-05-10T13:49:30;21.10;33.50
652;DHT22;310;48.490;9.200;2023-05-10T13:51:55;21.10;29.70
652;DHT22;310;48.490;9.200;2023-05-10T13:54:21;21.20;30.30
652;DHT22;310;48.490;9.200;2023-05-10T13:56:47;20.60;30.00
652;DHT22;310;48.490;9.200;2023-05-10T13:59:13;20.40;31.80
652;DHT22;310;48.490;9.200;2023-05-10T14:01:40;20.50;31.80
652;DHT22;310;48.490;9.200;2023-05-10T14:04:05;20.50;29.60
652;DHT22;310;48.490;9.200;2023-05-10T14:06:32;20.20;30.40
652;DHT22;310;48.490;9.200;2023-05-10T14:08:58;20.30;30.10
652;DHT22;310;48.490;9.200;2023-05-10T14:11:24;20.00;31.30
652;DHT22;310;48.490;9.200;2023-05-10T14:13:49;20.30;32.00
652;DHT22;310;48.490;9.200;2023-05-10T14:16:15;20.20;33.10
652;DHT22;310;48.490;9.200;2023-05-10T14:18:40;19.90;32.50
652;DHT22;310;48.490;9.200;2023-05-10T14:21:06;19.50;32.20
652;DHT22;310;48.490;9.200;2023-05-10T14:23:32;19.90;32.50
652;DHT22;310;48.490;9.200;2023-05-10T14:25:57;20.20;30.60
652;DHT22;310;48.490;9.200;2023-05-10T14:28:23;19.20;32.80
652;DHT22;310;48.490;9.200;2023-05-10T14:30:50;18.70;33.50
652;DHT22;310;48.490;9.200;2023-05-10T14:33:16;18.60;34.80
652;DHT22;310;48.490;9.200;2023-05-10T14:35:42;18.20;34.30
652;DHT22;310;48.490;9.200;2023-05-10T14:38:08;18.20;35.90
652;DHT22;310;48.490;9.200;2023-05-10T14:40:33;18.50;35.50
652;DHT22;310;48.490;9.200;2023-05-10T14:42:59;18.90;33.90
652;DHT22;310;48.490;9.200;2023-05-10T14:45:25;19.40;33.70
652;DHT22;310;48.490;9.200;2023-05-10T14:47:51;18.80;34.20
652;DHT22;310;48.490;9.200;2023-05-10T14:50:17;18.70;33.20
652;DHT22;310;48.490;9.200;2023-05-10T14:52:43;18.40;34.80
652;DHT22;310;48.490;9.200;2023-05-10T14:55:09;18.60;33.20
652;DHT22;310;48.490;9.200;2023-05-10T14:57:35;19.00;33.10
652;DHT22;310;48.490;9.200;2023-05-10T15:00:02;19.00;32.80
652;DHT22;310;48.490;9.200;2023-05-10T15:02:28;19.00;34.00
652;DHT22;310;48.490;9.200;2023-05-10T15:04:53;19.80;32.50
652;DHT22;310;48.490;9.200;2023-05-10T15:07:19;19.10;32.40
652;DHT22;310;48.490;9.200;2023-05-10T15:09:45;18.80;33.80
652;DHT22;310;48.490;9.200;2023-05-10T15:12:11;19.00;33.20
652;DHT22;310;48.490;9.200;2023-05-10T15:14:36;19.00;33.30
652;DHT22;310;48.490;9.200;2023-05-10T15:17:03;18.50;34.90
652;DHT22;310;48.490;9.200;2023-05-10T15:19:28;19.10;35.20
652;DHT22;310;48.490;9.200;2023-05-10T15:21:54;18.90;32.80
652;DHT22;310;48.490;9.200;2023-05-10T15:24:21;19.00;34.00
652;DHT22;310;48.490;9.200;2023-05-10T15:26:47;19.40;33.60
652;DHT22;310;48.490;9.200;2023-05-10T15:29:12;19.70;31.60
652;DHT22;310;48.490;9.200;2023-05-10T15:31:48;19.50;31.50
652;DHT22;310;48.490;9.200;2023-05-10T15:34:15;19.10;32.50
652;DHT22;310;48.490;9.200;2023-05-10T15:36:40;18.90;32.90
652;DHT22;310;48.490;9.200;2023-05-10T15:39:07;19.70;35.20
652;DHT22;310;48.490;9.200;2023-05-10T15:41:34;19.90;31.40
652;DHT22;310;48.490;9.200;2023-05-10T15:44:00;19.60;32.90
652;DHT22;310;48.490;9.200;2023-05-10T15:46:29;19.10;32.50
652;DHT22;310;48.490;9.200;2023-05-10T15:48:58;19.10;33.30
652;DHT22;310;48.490;9.200;2023-05-10T15:51:25;18.80;33.90
652;DHT22;310;48.490;9.200;2023-05-10T15:53:51;19.40;35.20
652;DHT22;310;48.490;9.200;2023-05-10T15:56:16;19.50;33.20
652;DHT22;310;48.490;9.200;2023-05-10T15:58:42;19.90;37.40
652;DHT22;310;48.490;9.200;2023-05-10T16:01:09;20.10;39.80
652;DHT22;310;48.490;9.200;2023-05-10T16:03:36;20.30;38.80
652;DHT22;310;48.490;9.200;2023-05-10T16:06:02;20.30;34.20
652;DHT22;310;48.490;9.200;2023-05-10T16:08:28;20.00;36.10
652;DHT22;310;48.490;9.200;2023-05-10T16:10:58;20.20;31.50
652;DHT22;310;48.490;9.200;2023-05-10T16:13:24;20.30;30.90
652;DHT22;310;48.490;9.200;2023-05-10T16:15:49;20.40;31.00
652;DHT22;310;48.490;9.200;2023-05-10T16:18:15;20.50;32.40
652;DHT22;310;48.490;9.200;2023-05-10T16:20:42;20.50;32.80
652;DHT22;310;48.490;9.200;2023-05-10T16:23:08;20.60;34.70
652;DHT22;310;48.490;9.200;2023-05-10T16:25:34;20.30;31.60
652;DHT22;310;48.490;9.200;2023-05-10T16:28:00;20.10;32.20
652;DHT22;310;48.490;9.200;2023-05-10T16:30:25;20.20;32.10
652;DHT22;310;48.490;9.200;2023-05-10T16:32:54;19.50;32.80
652;DHT22;310;48.490;9.200;2023-05-10T16:35:20;19.90;31.60
652;DHT22;310;48.490;9.200;2023-05-10T16:37:46;19.60;31.80
652;DHT22;310;48.490;9.200;2023-05-10T16:40:12;18.50;33.30
652;DHT22;310;48.490;9.200;2023-05-10T16:42:38;18.60;33.60
652;DHT22;310;48.490;9.200;2023-05-10T16:45:04;18.30;34.00
652;DHT22;310;48.490;9.200;2023-05-10T16:47:37;18.10;35.30
652;DHT22;310;48.490;9.200;2023-05-10T16:50:04;18.10;34.30
652;DHT22;310;48.490;9.200;2023-05-10T16:52:32;18.30;35.10
652;DHT22;310;48.490;9.200;2023-05-10T16:54:58;18.40;34.40
652;DHT22;310;48.490;9.200;2023-05-10T16:57:23;18.60;33.30
652;DHT22;310;48.490;9.200;2023-05-10T16:59:49;18.90;34.00
652;DHT22;310;48.490;9.200;2023-05-10T17:02:18;18.70;34.40
652;DHT22;310;48.490;9.200;2023-05-10T17:04:43;18.90;33.80